createdAt,value
2018-10-17T00:00:13.462Z,20.17
2018-10-17T00:02:40.672Z,19.70
2018-10-17T00:05:08.168Z,19.90
2018-10-17T00:07:34.983Z,18.97
2018-10-17T00:10:01.871Z,19.80
2018-10-17T00:12:28.786Z,19.97
2018-10-17T00:14:55.686Z,18.53
2018-10-17T00:17:22.542Z,18.77
2018-10-17T00:19:49.401Z,18.10
2018-10-17T00:22:16.333Z,20.07
2018-10-17T00:24:43.203Z,18.83
2018-10-17T00:27:10.075Z,19.57
2018-10-17T00:29:36.971Z,20.00
2018-10-17T00:32:03.841Z,19.70
2018-10-17T00:34:30.693Z,20.00
2018-10-17T00:36:57.573Z,18.97
2018-10-17T00:39:24.465Z,20.10
2018-10-17T00:41:51.337Z,18.53
2018-10-17T00:44:18.191Z,19.40
2018-10-17T00:46:45.080Z,19.53
2018-10-17T00:49:12.020Z,19.03
2018-10-17T00:51:38.844Z,20.53
2018-10-17T00:54:05.742Z,19.10
2018-10-17T00:56:32.624Z,21.33
2018-10-17T00:59:09.767Z,21.00
2018-10-17T01:01:37.002Z,21.20
2018-10-17T01:04:04.007Z,19.70
2018-10-17T01:06:31.892Z,21.27
2018-10-17T01:08:59.061Z,20.37
2018-10-17T01:11:25.964Z,19.67
2018-10-17T01:13:52.848Z,19.83
2018-10-17T01:16:19.746Z,20.80
2018-10-17T01:18:46.619Z,20.10
2018-10-17T01:21:13.481Z,20.47
2018-10-17T01:23:40.357Z,19.60
2018-10-17T01:26:07.209Z,20.00
2018-10-17T01:28:34.101Z,20.47
2018-10-17T01:31:01.018Z,19.73
2018-10-17T01:33:27.858Z,20.50
2018-10-17T01:35:54.728Z,19.03
2018-10-17T01:38:21.592Z,19.87
2018-10-17T01:40:48.462Z,20.37
2018-10-17T01:43:15.451Z,18.90
2018-10-17T01:45:42.242Z,19.37
2018-10-17T01:48:09.131Z,18.87
2018-10-17T01:50:36.031Z,19.63
2018-10-17T01:53:03.080Z,19.07
2018-10-17T01:55:29.903Z,18.67
2018-10-17T01:57:56.774Z,17.63
2018-10-17T02:00:23.646Z,18.47
2018-10-17T02:02:50.601Z,17.23
2018-10-17T02:05:17.563Z,17.53
2018-10-17T02:07:44.411Z,16.80
2018-10-17T02:10:11.296Z,16.50
2018-10-17T02:12:38.174Z,17.80
2018-10-17T02:15:05.307Z,16.83
2018-10-17T02:17:32.175Z,17.50
2018-10-17T02:19:59.045Z,16.50
2018-10-17T02:22:25.940Z,16.53
2018-10-17T02:24:52.884Z,16.77
2018-10-17T02:27:19.760Z,16.33
2018-10-17T02:29:46.666Z,17.20
2018-10-17T02:32:13.499Z,16.90
2018-10-17T02:34:46.112Z,16.90
2018-10-17T02:37:13.017Z,16.43
2018-10-17T02:39:39.908Z,17.10
2018-10-17T02:42:06.724Z,17.20
2018-10-17T02:44:33.599Z,15.93
2018-10-17T02:47:00.537Z,17.57
2018-10-17T02:49:27.375Z,18.57
2018-10-17T02:51:54.251Z,17.17
2018-10-17T02:54:21.127Z,16.37
2018-10-17T02:56:48.016Z,16.47
2018-10-17T02:59:14.940Z,17.73
2018-10-17T03:01:41.791Z,15.90
2018-10-17T03:04:08.705Z,15.87
2018-10-17T03:06:35.597Z,17.00
2018-10-17T03:09:04.116Z,15.70
2018-10-17T03:11:30.982Z,16.07
2018-10-17T03:13:57.849Z,16.40
2018-10-17T03:16:24.698Z,17.03
2018-10-17T03:18:51.622Z,16.57
2018-10-17T03:21:18.486Z,17.40
2018-10-17T03:23:45.354Z,17.13
2018-10-17T03:26:12.204Z,15.43
2018-10-17T03:28:39.075Z,16.27
2018-10-17T03:31:06.024Z,16.10
2018-10-17T03:33:32.831Z,17.17
2018-10-17T03:35:59.900Z,15.50
2018-10-17T03:38:26.599Z,16.90
2018-10-17T03:40:53.525Z,16.80
2018-10-17T03:43:20.399Z,16.50
2018-10-17T03:45:47.275Z,16.70
2018-10-17T03:48:14.149Z,16.43
2018-10-17T03:50:41.025Z,15.67
2018-10-17T03:53:07.930Z,16.10
2018-10-17T03:55:34.880Z,16.33
2018-10-17T03:58:01.780Z,15.33
2018-10-17T04:00:28.662Z,16.77
2018-10-17T04:02:55.658Z,15.80
2018-10-17T04:05:22.475Z,15.93
2018-10-17T04:07:49.348Z,16.57
2018-10-17T04:10:16.275Z,17.73
2018-10-17T04:12:43.154Z,16.50
2018-10-17T04:15:10.012Z,17.03
2018-10-17T04:17:36.901Z,17.40
2018-10-17T04:20:04.093Z,18.00
2018-10-17T04:22:31.100Z,16.33
2018-10-17T04:24:57.957Z,17.07
2018-10-17T04:27:24.864Z,17.03
2018-10-17T04:29:51.753Z,16.27
2018-10-17T04:32:18.661Z,16.97
2018-10-17T04:34:45.543Z,16.50
2018-10-17T04:37:12.507Z,16.93
2018-10-17T04:39:39.350Z,17.03
2018-10-17T04:42:06.231Z,16.83
2018-10-17T04:44:33.108Z,16.60
2018-10-17T04:47:00.078Z,16.83
2018-10-17T04:49:26.901Z,16.83
2018-10-17T04:51:53.875Z,17.40
2018-10-17T04:54:20.755Z,17.27
2018-10-17T04:56:47.701Z,16.60
2018-10-17T04:59:14.701Z,15.90
2018-10-17T05:01:41.498Z,16.40
2018-10-17T05:04:08.396Z,17.27
2018-10-17T05:06:35.322Z,17.70
2018-10-17T05:09:02.542Z,17.20
2018-10-17T05:11:29.390Z,17.23
2018-10-17T05:13:56.264Z,17.53
2018-10-17T05:16:23.389Z,17.77
2018-10-17T05:18:50.282Z,19.30
2018-10-17T05:21:17.447Z,18.23
2018-10-17T05:23:44.345Z,16.73
2018-10-17T05:26:11.313Z,18.50
2018-10-17T05:28:38.344Z,17.60
2018-10-17T05:31:05.388Z,18.93
2018-10-17T05:33:32.341Z,20.70
2018-10-17T05:35:59.253Z,18.10
2018-10-17T05:38:26.771Z,18.73
2018-10-17T05:40:54.113Z,18.33
2018-10-17T05:43:21.908Z,20.27
2018-10-17T05:45:48.898Z,17.53
2018-10-17T05:48:15.955Z,18.50
2018-10-17T05:50:43.107Z,19.00
2018-10-17T05:53:10.131Z,18.47
2018-10-17T05:55:37.881Z,19.47
2018-10-17T05:58:05.503Z,21.07
2018-10-17T06:00:33.605Z,22.13
2018-10-17T06:03:00.577Z,19.47
2018-10-17T06:05:27.975Z,20.33
2018-10-17T06:07:55.055Z,19.37
2018-10-17T06:10:22.087Z,21.13
2018-10-17T06:12:49.202Z,19.00
2018-10-17T06:15:16.933Z,20.77
2018-10-17T06:17:43.953Z,20.63
2018-10-17T06:20:11.207Z,23.00
2018-10-17T06:22:40.350Z,21.63
2018-10-17T06:25:07.820Z,22.10
2018-10-17T06:27:34.993Z,22.70
2018-10-17T06:30:01.965Z,19.53
2018-10-17T06:32:30.207Z,21.33
2018-10-17T06:34:57.440Z,24.67
2018-10-17T06:37:24.526Z,19.53
2018-10-17T06:39:52.061Z,22.83
2018-10-17T06:42:19.021Z,22.53
2018-10-17T06:44:46.664Z,21.97
2018-10-17T06:47:13.868Z,21.83
2018-10-17T06:49:41.203Z,22.23
2018-10-17T06:52:08.189Z,23.30
2018-10-17T06:54:35.366Z,21.67
2018-10-17T06:57:02.334Z,20.97
2018-10-17T06:59:30.583Z,22.17
2018-10-17T07:02:00.298Z,20.10
2018-10-17T07:04:27.623Z,26.10
2018-10-17T07:06:54.679Z,21.50
2018-10-17T07:09:24.426Z,24.70
2018-10-17T07:11:51.549Z,24.70
2018-10-17T07:14:18.516Z,24.30
2018-10-17T07:16:45.441Z,21.10
2018-10-17T07:19:12.472Z,21.20
2018-10-17T07:21:39.374Z,20.93
2018-10-17T07:24:06.431Z,21.47
2018-10-17T07:26:33.610Z,22.00
2018-10-17T07:29:00.622Z,22.93
2018-10-17T07:31:27.907Z,22.13
2018-10-17T07:47:25.867Z,23.23
2018-10-17T07:49:53.009Z,22.83
2018-10-17T07:52:19.944Z,23.60
2018-10-17T07:54:46.892Z,23.93
2018-10-17T07:57:14.000Z,23.93
2018-10-17T07:59:41.059Z,23.60
2018-10-17T08:02:10.067Z,24.00
2018-10-17T08:09:32.333Z,25.97
2018-10-17T08:11:59.361Z,26.67
2018-10-17T08:14:26.316Z,25.20
2018-10-17T08:16:53.330Z,26.23
2018-10-17T08:19:20.403Z,26.53
2018-10-17T08:21:47.429Z,25.67
2018-10-17T08:24:14.420Z,26.97
2018-10-17T08:26:41.406Z,27.87
2018-10-17T08:29:08.497Z,26.73
2018-10-17T08:31:35.581Z,24.43
2018-10-17T08:34:02.569Z,25.37
2018-10-17T08:36:30.285Z,27.47
2018-10-17T08:38:56.820Z,27.17
2018-10-17T08:41:23.948Z,25.70
2018-10-17T08:43:50.919Z,26.17
2018-10-17T08:48:48.355Z,26.30
2018-10-17T08:51:16.309Z,25.70
2018-10-17T08:53:43.768Z,27.00
2018-10-17T08:56:10.873Z,24.40
2018-10-17T08:58:37.802Z,29.93
2018-10-17T09:01:04.897Z,27.03
2018-10-17T09:03:31.982Z,27.17
2018-10-17T09:05:59.063Z,24.10
2018-10-17T09:08:26.046Z,23.57
2018-10-17T09:10:53.133Z,25.90
2018-10-17T09:13:20.159Z,24.40
2018-10-17T09:15:47.642Z,27.27
2018-10-17T09:18:14.828Z,26.07
2018-10-17T09:20:42.278Z,23.47
2018-10-17T09:23:08.977Z,27.43
2018-10-17T09:25:39.939Z,23.80
2018-10-17T09:28:10.181Z,25.13
2018-10-17T09:30:37.461Z,24.33
2018-10-17T09:33:05.210Z,24.03
2018-10-17T09:35:32.210Z,23.77
2018-10-17T09:37:59.153Z,24.57
2018-10-17T09:40:27.444Z,27.13
2018-10-17T09:42:55.427Z,23.87
2018-10-17T09:45:22.436Z,25.13
2018-10-17T09:47:49.427Z,24.73
2018-10-17T09:50:17.712Z,28.00
2018-10-17T09:52:44.727Z,24.37
2018-10-17T09:55:13.043Z,26.40
2018-10-17T09:57:40.008Z,26.13
2018-10-17T10:00:12.894Z,24.07
2018-10-17T10:02:39.797Z,23.87
2018-10-17T10:05:06.784Z,21.90
2018-10-17T10:07:33.728Z,24.55
2018-10-17T10:10:00.850Z,21.70
2018-10-17T10:12:27.830Z,23.15
2018-10-17T10:14:54.800Z,22.42
2018-10-17T10:17:21.878Z,23.85
2018-10-17T10:19:48.732Z,22.95
2018-10-17T10:22:15.906Z,23.80
2018-10-17T10:24:42.903Z,21.70
2018-10-17T10:27:09.988Z,24.15
2018-10-17T10:29:37.028Z,22.17
2018-10-17T10:32:04.317Z,25.90
2018-10-17T10:34:31.338Z,23.77
2018-10-17T10:36:58.302Z,23.25
2018-10-17T10:39:25.354Z,25.50
2018-10-17T10:41:52.451Z,27.50
2018-10-17T10:44:22.509Z,23.70
2018-10-17T10:46:49.522Z,23.75
2018-10-17T10:49:16.777Z,22.27
2018-10-17T10:51:43.748Z,22.85
2018-10-17T10:54:11.190Z,23.45
2018-10-17T10:56:39.049Z,22.45
2018-10-17T10:59:06.615Z,22.62
2018-10-17T11:01:33.655Z,23.85
2018-10-17T11:04:00.737Z,21.85
2018-10-17T11:06:27.732Z,22.02
2018-10-17T11:08:54.733Z,20.97
2018-10-17T11:11:22.113Z,20.05
2018-10-17T11:13:49.223Z,20.35
2018-10-17T11:16:16.265Z,20.25
2018-10-17T11:18:43.341Z,19.52
2018-10-17T11:21:10.511Z,19.00
2018-10-17T11:23:37.469Z,19.35
2018-10-17T11:26:04.701Z,18.77
2018-10-17T11:28:31.691Z,18.62
2018-10-17T11:30:58.667Z,19.02
2018-10-17T11:33:26.385Z,25.70
2018-10-17T11:35:53.420Z,19.92
2018-10-17T11:38:23.311Z,22.70
2018-10-17T11:40:50.523Z,17.35
2018-10-17T11:43:17.530Z,18.98
2018-10-17T11:45:44.559Z,17.92
2018-10-17T11:50:36.016Z,19.35
2018-10-17T11:53:03.749Z,18.98
2018-10-17T11:55:31.372Z,20.02
2018-10-17T11:57:58.999Z,18.10
2018-10-17T12:00:25.998Z,18.25
2018-10-17T12:02:53.017Z,19.48
2018-10-17T12:05:20.209Z,19.17
2018-10-17T12:07:47.326Z,19.00
2018-10-17T12:10:14.379Z,17.82
2018-10-17T12:12:42.343Z,19.25
2018-10-17T12:15:13.396Z,18.27
2018-10-17T12:17:40.614Z,20.10
2018-10-17T12:20:09.634Z,18.27
2018-10-17T12:22:36.864Z,17.12
2018-10-17T12:25:04.098Z,16.57
2018-10-17T12:27:31.201Z,18.75
2018-10-17T12:29:58.254Z,18.80
2018-10-17T12:32:25.300Z,22.10
2018-10-17T12:34:52.339Z,19.20
2018-10-17T12:37:20.301Z,17.37
2018-10-17T12:39:47.417Z,14.87
2018-10-17T12:42:14.316Z,15.08
2018-10-17T12:44:41.344Z,16.27
2018-10-17T12:47:08.397Z,16.30
2018-10-17T12:49:35.416Z,15.98
2018-10-17T12:52:02.371Z,18.45
2018-10-17T12:54:29.239Z,17.00
2018-10-17T12:56:56.207Z,15.60
2018-10-17T12:59:23.198Z,14.30
2018-10-17T13:01:50.199Z,17.75
2018-10-17T13:04:17.247Z,16.20
2018-10-17T13:06:44.208Z,14.47
2018-10-17T13:09:11.980Z,15.30
2018-10-17T13:11:39.109Z,15.13
2018-10-17T13:14:06.039Z,14.50
2018-10-17T13:16:33.089Z,15.70
2018-10-17T13:19:01.255Z,15.65
2018-10-17T13:21:29.228Z,15.90
2018-10-17T13:23:56.191Z,15.72
2018-10-17T13:26:23.252Z,15.65
2018-10-17T13:28:50.226Z,16.27
2018-10-17T13:31:17.362Z,15.98
2018-10-17T13:33:44.424Z,15.03
2018-10-17T13:36:11.389Z,15.55
2018-10-17T13:38:38.338Z,15.25
2018-10-17T13:41:05.352Z,15.38
2018-10-17T13:43:32.251Z,16.37
2018-10-17T13:45:59.237Z,18.90
2018-10-17T13:48:26.217Z,15.83
2018-10-17T13:50:53.214Z,16.48
2018-10-17T13:53:20.189Z,16.67
2018-10-17T13:55:47.191Z,16.67
2018-10-17T13:58:14.230Z,16.10
2018-10-17T14:00:41.265Z,15.88
2018-10-17T14:03:08.277Z,15.40
2018-10-17T14:05:35.246Z,15.53
2018-10-17T14:08:02.320Z,16.37
2018-10-17T14:10:29.281Z,14.98
2018-10-17T14:12:56.242Z,14.15
2018-10-17T14:15:23.192Z,14.70
2018-10-17T14:17:50.161Z,12.85
2018-10-17T14:20:17.136Z,13.20
2018-10-17T14:22:45.027Z,14.50
2018-10-17T14:25:12.056Z,12.88
2018-10-17T14:27:39.044Z,12.93
2018-10-17T14:30:09.798Z,12.90
2018-10-17T14:32:40.105Z,12.58
2018-10-17T14:35:08.938Z,14.70
2018-10-17T14:37:35.949Z,12.80
2018-10-17T14:40:03.052Z,15.45
2018-10-17T14:42:30.049Z,14.35
2018-10-17T14:44:57.005Z,13.08
2018-10-17T14:47:24.099Z,14.35
2018-10-17T14:49:51.093Z,13.88
2018-10-17T14:52:18.884Z,18.57
2018-10-17T14:54:46.226Z,16.15
2018-10-17T14:57:14.278Z,18.57
2018-10-17T14:59:41.237Z,16.60
2018-10-17T15:02:14.182Z,14.98
2018-10-17T15:04:41.244Z,14.05
2018-10-17T15:07:08.347Z,16.07
2018-10-17T15:09:35.402Z,15.58
2018-10-17T15:12:02.489Z,13.72
2018-10-17T15:14:29.512Z,15.15
2018-10-17T15:16:57.915Z,14.15
2018-10-17T15:19:24.828Z,15.15
2018-10-17T15:21:51.853Z,14.73
2018-10-17T15:24:18.978Z,13.80
2018-10-17T15:26:45.939Z,15.58
2018-10-17T15:29:12.937Z,16.00
2018-10-17T15:31:40.012Z,16.95
2018-10-17T15:34:06.971Z,14.75
2018-10-17T15:36:33.981Z,15.00
2018-10-17T15:39:01.731Z,14.00
2018-10-17T15:41:29.462Z,14.68
2018-10-17T15:43:58.316Z,17.87
2018-10-17T15:46:25.370Z,18.17
2018-10-17T15:48:52.304Z,14.53
2018-10-17T15:51:19.338Z,15.43
2018-10-17T15:53:48.552Z,15.50
2018-10-17T15:56:15.605Z,14.87
2018-10-17T15:58:42.542Z,16.23
2018-10-17T16:01:11.717Z,20.52
2018-10-17T16:03:38.612Z,16.40
2018-10-17T16:06:07.301Z,17.60
2018-10-17T16:08:34.289Z,16.20
2018-10-17T16:11:02.588Z,17.95
2018-10-17T16:13:29.620Z,17.35
2018-10-17T16:15:56.668Z,17.67
2018-10-17T16:18:23.771Z,18.05
2018-10-17T16:20:51.112Z,17.35
2018-10-17T16:23:18.258Z,16.65
2018-10-17T16:25:45.828Z,21.80
2018-10-17T16:28:12.819Z,17.55
2018-10-17T16:30:39.973Z,17.60
2018-10-17T16:33:06.952Z,18.42
2018-10-17T16:35:34.043Z,18.52
2018-10-17T16:38:01.092Z,20.35
2018-10-17T16:40:28.307Z,19.35
2018-10-17T16:42:55.339Z,20.60
2018-10-17T16:45:22.597Z,19.98
2018-10-17T16:47:49.629Z,19.82
2018-10-17T16:50:16.802Z,23.07
2018-10-17T16:52:43.743Z,28.40
2018-10-17T16:55:10.858Z,29.65
2018-10-17T16:57:37.894Z,33.98
2018-10-17T17:00:06.585Z,39.13
2018-10-17T17:02:33.526Z,42.58
2018-10-17T17:05:00.567Z,42.75
2018-10-17T17:07:27.564Z,41.25
2018-10-17T17:09:54.559Z,43.80
2018-10-17T17:12:21.586Z,42.20
2018-10-17T17:14:48.872Z,41.08
2018-10-17T17:17:16.172Z,39.13
2018-10-17T17:19:43.244Z,39.65
2018-10-17T17:22:10.288Z,37.23
2018-10-17T17:24:37.332Z,35.50
2018-10-17T17:27:04.881Z,33.70
2018-10-17T17:29:32.034Z,33.25
2018-10-17T17:31:59.054Z,33.50
2018-10-17T17:34:26.463Z,34.38
2018-10-17T17:36:53.461Z,33.23
2018-10-17T17:39:20.463Z,31.05
2018-10-17T17:41:47.474Z,30.80
2018-10-17T17:44:14.527Z,30.48
2018-10-17T17:46:41.683Z,29.52
2018-10-17T17:49:08.592Z,30.23
2018-10-17T17:51:35.529Z,31.75
2018-10-17T17:54:02.449Z,30.00
2018-10-17T17:56:29.378Z,33.47
2018-10-17T17:58:56.280Z,31.52
2018-10-17T18:01:23.254Z,33.10
2018-10-17T18:03:50.204Z,31.33
2018-10-17T18:06:17.187Z,33.00
2018-10-17T18:08:44.147Z,32.23
2018-10-17T18:11:14.122Z,30.90
2018-10-17T18:13:41.044Z,32.23
2018-10-17T18:16:08.074Z,31.95
2018-10-17T18:18:34.953Z,31.17
2018-10-17T18:21:01.884Z,30.33
2018-10-17T18:23:28.807Z,32.07
2018-10-17T18:25:55.762Z,31.97
2018-10-17T18:28:23.522Z,31.67
2018-10-17T18:30:50.487Z,31.07
2018-10-17T18:33:17.461Z,30.65
2018-10-17T18:35:44.394Z,30.23
2018-10-17T18:38:11.354Z,30.77
2018-10-17T18:40:38.300Z,30.20
2018-10-17T18:43:05.229Z,29.60
2018-10-17T18:45:32.973Z,28.13
2018-10-17T18:47:59.962Z,28.10
2018-10-17T18:50:26.878Z,29.40
2018-10-17T18:52:53.746Z,28.60
2018-10-17T18:55:20.677Z,28.75
2018-10-17T18:57:47.589Z,29.13
2018-10-17T19:00:14.536Z,28.10
2018-10-17T19:02:41.464Z,27.53
2018-10-17T19:05:08.399Z,31.57
2018-10-17T19:07:35.358Z,30.37
2018-10-17T19:10:02.338Z,29.37
2018-10-17T19:12:29.272Z,30.53
2018-10-17T19:14:56.293Z,28.57
2018-10-17T19:17:23.215Z,30.70
2018-10-17T19:19:50.254Z,29.30
2018-10-17T19:22:21.733Z,29.60
2018-10-17T19:24:48.891Z,27.90
2018-10-17T19:27:15.989Z,29.07
2018-10-17T19:29:42.827Z,29.93
2018-10-17T19:32:09.782Z,30.27
2018-10-17T19:34:36.785Z,29.77
2018-10-17T19:37:03.891Z,27.90
2018-10-17T19:39:30.967Z,28.73
2018-10-17T19:41:57.984Z,29.25
2018-10-17T19:44:24.944Z,30.53
2018-10-17T19:46:51.914Z,29.67
2018-10-17T19:49:18.840Z,29.80
2018-10-17T19:51:45.938Z,30.20
2018-10-17T19:54:12.939Z,31.80
2018-10-17T19:56:39.966Z,30.70
2018-10-17T19:59:07.018Z,31.13
2018-10-17T20:01:33.988Z,30.97
2018-10-17T20:04:00.994Z,29.60
2018-10-17T20:06:27.970Z,30.30
2018-10-17T20:08:54.887Z,31.70
2018-10-17T20:11:21.915Z,30.30
2018-10-17T20:13:48.912Z,30.70
2018-10-17T20:16:15.862Z,29.60
2018-10-17T20:18:42.840Z,29.73
2018-10-17T20:21:09.839Z,30.03
2018-10-17T20:23:36.801Z,30.67
2018-10-17T20:26:04.316Z,30.17
2018-10-17T20:28:31.317Z,31.67
2018-10-17T20:30:59.471Z,30.53
2018-10-17T20:33:26.367Z,32.30
2018-10-17T20:35:53.296Z,32.90
2018-10-17T20:38:20.326Z,32.17
2018-10-17T20:40:47.299Z,33.23
2018-10-17T20:43:14.365Z,31.43
2018-10-17T20:45:41.278Z,31.80
2018-10-17T20:48:08.213Z,30.83
2018-10-17T20:50:35.716Z,31.57
2018-10-17T20:53:02.692Z,31.10
2018-10-17T20:55:29.617Z,32.23
2018-10-17T20:57:56.598Z,31.93
2018-10-17T21:00:23.524Z,32.73
2018-10-17T21:02:50.563Z,31.97
2018-10-17T21:05:17.603Z,31.00
2018-10-17T21:07:44.538Z,31.10
2018-10-17T21:10:11.484Z,31.43
2018-10-17T21:12:38.523Z,31.47
2018-10-17T21:15:06.008Z,31.80
2018-10-17T21:17:32.958Z,31.10
2018-10-17T21:19:59.975Z,31.47
2018-10-17T21:22:26.940Z,31.67
2018-10-17T21:24:53.848Z,31.67
2018-10-17T21:27:20.787Z,31.07
2018-10-17T21:29:47.712Z,32.37
2018-10-17T21:32:14.759Z,32.13
2018-10-17T21:34:41.568Z,32.30
2018-10-17T21:37:08.486Z,32.87
2018-10-17T21:39:35.798Z,32.10
2018-10-17T21:42:02.688Z,31.97
2018-10-17T21:44:29.594Z,31.43
2018-10-17T21:46:56.892Z,31.07
2018-10-17T21:49:23.829Z,32.47
2018-10-17T21:51:51.097Z,33.80
2018-10-17T21:54:18.027Z,31.93
2018-10-17T21:56:44.922Z,32.33
2018-10-17T21:59:11.827Z,32.23
2018-10-17T22:01:38.732Z,32.87
2018-10-17T22:04:05.623Z,32.43
2018-10-17T22:06:32.530Z,32.27
2018-10-17T22:08:59.464Z,33.03
2018-10-17T22:11:26.329Z,32.07
2018-10-17T22:13:53.344Z,30.23
2018-10-17T22:16:20.315Z,32.70
2018-10-17T22:18:47.270Z,32.07
2018-10-17T22:26:06.393Z,31.20
2018-10-17T22:28:33.282Z,30.47
2018-10-17T22:31:00.196Z,31.47
2018-10-17T22:33:27.098Z,31.70
2018-10-17T22:35:53.998Z,31.97
2018-10-17T22:38:20.889Z,32.53
2018-10-17T22:40:47.762Z,32.97
2018-10-17T22:43:14.677Z,31.20
2018-10-17T22:45:41.580Z,31.83
2018-10-17T22:48:08.476Z,31.80
2018-10-17T22:50:35.374Z,33.13
2018-10-17T22:53:02.254Z,34.40
2018-10-17T22:55:29.191Z,34.00
2018-10-17T22:57:56.103Z,34.30
2018-10-17T23:00:22.993Z,35.43
2018-10-17T23:02:49.932Z,32.40
2018-10-17T23:05:16.979Z,34.60
2018-10-17T23:07:43.876Z,34.33
2018-10-17T23:10:10.778Z,34.33
2018-10-17T23:12:37.664Z,33.80
2018-10-17T23:15:08.874Z,34.07
2018-10-17T23:17:35.791Z,36.00
2018-10-17T23:20:02.762Z,33.60
2018-10-17T23:22:29.629Z,34.20
2018-10-17T23:24:56.522Z,34.83
2018-10-17T23:27:23.390Z,34.43
2018-10-17T23:29:50.329Z,33.70
2018-10-17T23:32:17.410Z,33.20
2018-10-17T23:34:44.279Z,33.80
2018-10-17T23:37:11.183Z,35.97
2018-10-17T23:39:38.111Z,34.23
2018-10-17T23:42:05.441Z,34.77
2018-10-17T23:44:32.346Z,33.67
2018-10-17T23:46:59.240Z,34.43
2018-10-17T23:49:26.125Z,34.87
2018-10-17T23:51:53.013Z,35.33
2018-10-17T23:54:19.987Z,33.83
2018-10-17T23:56:46.892Z,34.67
2018-10-17T23:59:13.780Z,34.43
